sensor_id;sensor_type;location;lat;lon;timestamp;pressure;altitude;pressure_sealevel;temperature;humidity
13124;BME280;6627;50.920;12.050;2023-03-22T00:01:12;98461.88;;;16.21;57.95
13124;BME280;6627;50.920;12.050;2023-03-22T00:03:39;98528.00;;;16.91;56.57
13124;BME280;6627;50.920;12.050;2023-03-22T00:06:08;98585.28;;;17.56;55.01
13124;BME280;6627;50.920;12.050;2023-03-22T00:08:36;98501.25;;;16.84;55.07
13124;BME280;6627;50.920;12.050;2023-03-22T00:11:05;98570.69;;;17.36;55.01
13124;BME280;6627;50.920;12.050;2023-03-22T00:13:34;98540.78;;;17.59;53.31
13124;BME280;6627;50.920;12.050;2023-03-22T00:16:03;98480.34;;;16.92;53.95
13124;BME280;6627;50.920;12.050;2023-03-22T00:18:30;98543.78;;;17.54;53.32
13124;BME280;6627;50.920;12.050;2023-03-22T00:20:58;98498.72;;;17.35;53.05
13124;BME280;6627;50.920;12.050;2023-03-22T00:23:27;98434.81;;;16.44;54.47
13124;BME280;6627;50.920;12.050;2023-03-22T00:25:54;98618.97;;;18.16;52.96
13124;BME280;6627;50.920;12.050;2023-03-22T00:28:23;98478.84;;;16.95;53.27
13124;BME280;6627;50.920;12.050;2023-03-22T00:30:54;98528.69;;;17.16;54.07
13124;BME280;6627;50.920;12.050;2023-03-22T00:33:22;98479.34;;;16.84;54.25
13124;BME280;6627;50.920;12.050;2023-03-22T00:35:53;98472.22;;;16.68;54.63
13124;BME280;6627;50.920;12.050;2023-03-22T00:38:20;98534.97;;;17.76;52.18
13124;BME280;6627;50.920;12.050;2023-03-22T00:40:47;98458.34;;;16.60;54.15
13124;BME280;6627;50.920;12.050;2023-03-22T00:43:15;98467.69;;;16.59;54.73
13124;BME280;6627;50.920;12.050;2023-03-22T00:45:42;98491.53;;;17.31;52.77
13124;BME280;6627;50.920;12.050;2023-03-22T00:48:11;98504.75;;;17.13;53.71
13124;BME280;6627;50.920;12.050;2023-03-22T00:50:39;98534.53;;;17.74;52.08
13124;BME280;6627;50.920;12.050;2023-03-22T00:53:06;98488.81;;;17.47;51.67
13124;BME280;6627;50.920;12.050;2023-03-22T00:55:34;98518.34;;;17.69;51.41
13124;BME280;6627;50.920;12.050;2023-03-22T00:58:01;98509.25;;;17.49;52.30
13124;BME280;6627;50.920;12.050;2023-03-22T01:00:28;98467.91;;;16.95;53.27
13124;BME280;6627;50.920;12.050;2023-03-22T01:02:57;98567.56;;;18.29;50.76
13124;BME280;6627;50.920;12.050;2023-03-22T01:05:32;98405.44;;;16.97;51.73
13124;BME280;6627;50.920;12.050;2023-03-22T01:08:00;98408.25;;;16.84;52.04
13124;BME280;6627;50.920;12.050;2023-03-22T01:10:31;98480.19;;;17.45;51.66
13124;BME280;6627;50.920;12.050;2023-03-22T01:12:58;98490.84;;;17.34;51.71
13124;BME280;6627;50.920;12.050;2023-03-22T01:15:25;98410.72;;;16.61;52.45
13124;BME280;6627;50.920;12.050;2023-03-22T01:17:53;98368.13;;;15.92;54.01
13124;BME280;6627;50.920;12.050;2023-03-22T01:20:20;98346.34;;;15.55;54.92
13124;BME280;6627;50.920;12.050;2023-03-22T01:22:49;98467.91;;;16.95;52.53
13124;BME280;6627;50.920;12.050;2023-03-22T01:25:16;98492.09;;;17.52;50.71
13124;BME280;6627;50.920;12.050;2023-03-22T01:27:44;98417.41;;;16.76;51.84
13124;BME280;6627;50.920;12.050;2023-03-22T01:30:12;98480.94;;;17.29;51.40
13124;BME280;6627;50.920;12.050;2023-03-22T01:32:39;98404.75;;;16.44;52.58
13124;BME280;6627;50.920;12.050;2023-03-22T01:35:08;98466.69;;;17.08;51.98
13124;BME280;6627;50.920;12.050;2023-03-22T01:37:36;98427.31;;;16.97;51.74
13124;BME280;6627;50.920;12.050;2023-03-22T01:40:06;98544.81;;;17.93;50.74
13124;BME280;6627;50.920;12.050;2023-03-22T01:42:33;98398.75;;;17.10;50.44
13124;BME280;6627;50.920;12.050;2023-03-22T01:45:43;98435.91;;;17.11;51.29
13124;BME280;6627;50.920;12.050;2023-03-22T01:48:22;98390.28;;;16.71;51.81
13124;BME280;6627;50.920;12.050;2023-03-22T01:50:59;98451.19;;;17.28;51.24
13124;BME280;6627;50.920;12.050;2023-03-22T01:53:31;98363.72;;;16.56;51.59
13124;BME280;6627;50.920;12.050;2023-03-22T01:56:02;98430.59;;;17.02;51.53
13124;BME280;6627;50.920;12.050;2023-03-22T01:58:31;98349.38;;;16.19;52.62
13124;BME280;6627;50.920;12.050;2023-03-22T02:01:00;98387.34;;;16.64;52.13
13124;BME280;6627;50.920;12.050;2023-03-22T02:03:37;98371.25;;;16.90;50.58
13124;BME280;6627;50.920;12.050;2023-03-22T02:06:07;98380.63;;;16.74;51.11
13124;BME280;6627;50.920;12.050;2023-03-22T02:08:34;98396.91;;;16.70;51.42
13124;BME280;6627;50.920;12.050;2023-03-22T02:11:04;98312.88;;;16.11;51.44
13124;BME280;6627;50.920;12.050;2023-03-22T02:13:46;98379.50;;;16.34;52.57
13124;BME280;6627;50.920;12.050;2023-03-22T02:16:33;98429.38;;;17.15;50.59
13124;BME280;6627;50.920;12.050;2023-03-22T02:19:49;98249.13;;;15.38;52.68
13124;BME280;6627;50.920;12.050;2023-03-22T02:23:09;98405.94;;;16.86;51.23
13124;BME280;6627;50.920;12.050;2023-03-22T02:26:13;98359.75;;;16.69;50.68
13124;BME280;6627;50.920;12.050;2023-03-22T02:28:52;98294.75;;;15.91;52.02
13124;BME280;6627;50.920;12.050;2023-03-22T02:31:53;98406.50;;;17.08;50.61
13124;BME280;6627;50.920;12.050;2023-03-22T02:35:07;98293.34;;;15.97;51.55
13124;BME280;6627;50.920;12.050;2023-03-22T02:38:00;98354.34;;;16.29;52.02
13124;BME280;6627;50.920;12.050;2023-03-22T02:40:47;98362.28;;;16.74;50.86
13124;BME280;6627;50.920;12.050;2023-03-22T02:43:27;98301.81;;;15.92;52.01
13124;BME280;6627;50.920;12.050;2023-03-22T02:46:07;98352.56;;;16.49;51.41
13124;BME280;6627;50.920;12.050;2023-03-22T02:48:44;98413.84;;;17.20;49.96
13124;BME280;6627;50.920;12.050;2023-03-22T02:51:20;98287.25;;;15.87;51.61
13124;BME280;6627;50.920;12.050;2023-03-22T02:53:55;98369.97;;;16.56;50.54
13124;BME280;6627;50.920;12.050;2023-03-22T02:56:31;98350.47;;;16.58;50.09
13124;BME280;6627;50.920;12.050;2023-03-22T02:59:04;98384.78;;;16.83;50.08
13124;BME280;6627;50.920;12.050;2023-03-22T03:01:38;98400.22;;;17.07;49.60
13124;BME280;6627;50.920;12.050;2023-03-22T03:04:15;98412.16;;;17.15;49.28
13124;BME280;6627;50.920;12.050;2023-03-22T03:06:47;98335.84;;;16.66;49.60
13124;BME280;6627;50.920;12.050;2023-03-22T03:09:18;98394.03;;;16.95;49.90
13124;BME280;6627;50.920;12.050;2023-03-22T03:11:50;98361.47;;;16.74;50.13
13124;BME280;6627;50.920;12.050;2023-03-22T03:14:25;98382.66;;;16.93;49.64
13124;BME280;6627;50.920;12.050;2023-03-22T03:17:12;98360.44;;;17.10;48.45
13124;BME280;6627;50.920;12.050;2023-03-22T03:19:56;98364.66;;;16.92;49.46
13124;BME280;6627;50.920;12.050;2023-03-22T03:22:46;98321.34;;;16.78;49.07
13124;BME280;6627;50.920;12.050;2023-03-22T03:25:25;98315.94;;;16.81;48.37
13124;BME280;6627;50.920;12.050;2023-03-22T03:28:03;98206.75;;;15.97;49.50
13124;BME280;6627;50.920;12.050;2023-03-22T03:30:38;98077.22;;;14.82;50.87
13124;BME280;6627;50.920;12.050;2023-03-22T03:33:15;98254.47;;;15.87;50.96
13124;BME280;6627;50.920;12.050;2023-03-22T03:35:49;98297.63;;;16.38;49.73
13124;BME280;6627;50.920;12.050;2023-03-22T03:38:24;98157.28;;;15.30;50.48
13124;BME280;6627;50.920;12.050;2023-03-22T03:40:58;98225.50;;;15.30;52.42
13124;BME280;6627;50.920;12.050;2023-03-22T03:43:28;98358.63;;;16.70;49.98
13124;BME280;6627;50.920;12.050;2023-03-22T03:45:55;98343.41;;;16.57;49.86
13124;BME280;6627;50.920;12.050;2023-03-22T03:48:28;98401.91;;;17.44;48.30
13124;BME280;6627;50.920;12.050;2023-03-22T03:50:58;98260.56;;;16.25;49.09
13124;BME280;6627;50.920;12.050;2023-03-22T03:53:27;98254.03;;;15.85;50.29
13124;BME280;6627;50.920;12.050;2023-03-22T03:55:54;98263.53;;;16.04;49.82
13124;BME280;6627;50.920;12.050;2023-03-22T03:58:22;98140.84;;;14.74;52.31
13124;BME280;6627;50.920;12.050;2023-03-22T04:00:51;98298.81;;;15.97;51.78
13124;BME280;6627;50.920;12.050;2023-03-22T04:03:18;98309.75;;;15.97;52.49
13124;BME280;6627;50.920;12.050;2023-03-22T04:05:45;98293.41;;;16.12;51.52
13124;BME280;6627;50.920;12.050;2023-03-22T04:08:13;98323.84;;;16.27;51.43
13124;BME280;6627;50.920;12.050;2023-03-22T04:10:40;98316.66;;;16.34;50.93
13124;BME280;6627;50.920;12.050;2023-03-22T04:13:07;98353.81;;;16.51;50.85
13124;BME280;6627;50.920;12.050;2023-03-22T04:15:35;98359.63;;;16.78;49.72
13124;BME280;6627;50.920;12.050;2023-03-22T04:18:04;98428.25;;;17.32;48.99
13124;BME280;6627;50.920;12.050;2023-03-22T04:20:32;98427.09;;;17.49;47.88
13124;BME280;6627;50.920;12.050;2023-03-22T04:22:59;98358.84;;;17.09;48.43
13124;BME280;6627;50.920;12.050;2023-03-22T04:25:26;98392.28;;;17.34;48.22
13124;BME280;6627;50.920;12.050;2023-03-22T04:27:55;98358.75;;;17.21;47.92
13124;BME280;6627;50.920;12.050;2023-03-22T04:30:22;98333.78;;;17.07;48.23
13124;BME280;6627;50.920;12.050;2023-03-22T04:32:49;98368.53;;;17.54;47.78
13124;BME280;6627;50.920;12.050;2023-03-22T04:35:18;98401.09;;;17.75;47.43
13124;BME280;6627;50.920;12.050;2023-03-22T04:37:45;98408.53;;;17.74;47.72
13124;BME280;6627;50.920;12.050;2023-03-22T04:40:14;98349.47;;;17.42;47.74
13124;BME280;6627;50.920;12.050;2023-03-22T04:42:42;98313.47;;;17.08;48.82
13124;BME280;6627;50.920;12.050;2023-03-22T04:45:10;98387.22;;;17.83;47.33
13124;BME280;6627;50.920;12.050;2023-03-22T04:47:38;98203.53;;;16.55;48.41
13124;BME280;6627;50.920;12.050;2023-03-22T04:50:07;98362.00;;;17.43;48.63
13124;BME280;6627;50.920;12.050;2023-03-22T04:52:36;98364.44;;;17.63;48.05
13124;BME280;6627;50.920;12.050;2023-03-22T04:55:04;98316.44;;;17.34;48.11
13124;BME280;6627;50.920;12.050;2023-03-22T04:57:32;98327.47;;;17.38;48.25
13124;BME280;6627;50.920;12.050;2023-03-22T05:00:00;98347.31;;;17.51;48.04
13124;BME280;6627;50.920;12.050;2023-03-22T05:02:31;98340.97;;;17.47;48.20
13124;BME280;6627;50.920;12.050;2023-03-22T05:04:58;98333.06;;;17.10;49.07
13124;BME280;6627;50.920;12.050;2023-03-22T05:07:25;98381.84;;;17.55;49.09
13124;BME280;6627;50.920;12.050;2023-03-22T05:09:54;98331.38;;;17.37;48.40
13124;BME280;6627;50.920;12.050;2023-03-22T05:12:21;98347.69;;;17.49;48.45
13124;BME280;6627;50.920;12.050;2023-03-22T05:14:49;98259.06;;;16.87;48.80
13124;BME280;6627;50.920;12.050;2023-03-22T05:17:16;98325.81;;;17.33;48.47
13124;BME280;6627;50.920;12.050;2023-03-22T05:19:44;98346.22;;;17.71;47.75
13124;BME280;6627;50.920;12.050;2023-03-22T05:22:12;98325.97;;;17.40;48.22
13124;BME280;6627;50.920;12.050;2023-03-22T05:24:40;98403.63;;;18.19;46.74
13124;BME280;6627;50.920;12.050;2023-03-22T05:27:09;98287.56;;;17.37;47.17
13124;BME280;6627;50.920;12.050;2023-03-22T05:29:39;98267.59;;;16.85;49.47
13124;BME280;6627;50.920;12.050;2023-03-22T05:32:10;98363.38;;;17.68;48.39
13124;BME280;6627;50.920;12.050;2023-03-22T05:34:37;98370.28;;;17.62;49.16
13124;BME280;6627;50.920;12.050;2023-03-22T05:37:07;98319.06;;;17.47;48.64
13124;BME280;6627;50.920;12.050;2023-03-22T05:39:35;98432.16;;;18.33;47.86
13124;BME280;6627;50.920;12.050;2023-03-22T05:42:02;98445.47;;;18.70;46.92
13124;BME280;6627;50.920;12.050;2023-03-22T05:44:31;98344.19;;;17.68;48.39
13124;BME280;6627;50.920;12.050;2023-03-22T05:46:58;98471.59;;;18.83;47.03
13124;BME280;6627;50.920;12.050;2023-03-22T05:49:25;98476.72;;;19.04;46.37
13124;BME280;6627;50.920;12.050;2023-03-22T05:51:52;98486.00;;;19.19;46.10
13124;BME280;6627;50.920;12.050;2023-03-22T05:54:20;98436.06;;;18.71;46.77
13124;BME280;6627;50.920;12.050;2023-03-22T05:56:49;98455.84;;;18.80;47.04
13124;BME280;6627;50.920;12.050;2023-03-22T05:59:17;98246.03;;;17.15;49.03
13124;BME280;6627;50.920;12.050;2023-03-22T06:01:45;98303.59;;;16.87;51.80
13124;BME280;6627;50.920;12.050;2023-03-22T06:04:12;98395.59;;;17.90;49.97
13124;BME280;6627;50.920;12.050;2023-03-22T06:06:40;98496.13;;;18.76;48.80
13124;BME280;6627;50.920;12.050;2023-03-22T06:09:08;98522.19;;;19.48;46.32
13124;BME280;6627;50.920;12.050;2023-03-22T06:11:36;98509.19;;;19.22;47.27
13124;BME280;6627;50.920;12.050;2023-03-22T06:14:04;98416.56;;;18.76;46.61
13124;BME280;6627;50.920;12.050;2023-03-22T06:16:31;98281.91;;;17.46;48.72
13124;BME280;6627;50.920;12.050;2023-03-22T06:19:00;98470.88;;;18.86;47.96
13124;BME280;6627;50.920;12.050;2023-03-22T06:21:27;98506.16;;;19.27;47.17
13124;BME280;6627;50.920;12.050;2023-03-22T06:23:55;98465.44;;;19.32;46.08
13124;BME280;6627;50.920;12.050;2023-03-22T06:26:22;98453.06;;;19.19;46.33
13124;BME280;6627;50.920;12.050;2023-03-22T06:28:49;98486.13;;;19.26;46.44
13124;BME280;6627;50.920;12.050;2023-03-22T06:31:16;98540.81;;;19.77;46.21
13124;BME280;6627;50.920;12.050;2023-03-22T06:33:44;98436.06;;;18.90;46.71
13124;BME280;6627;50.920;12.050;2023-03-22T06:36:12;98512.06;;;19.52;46.80
13124;BME280;6627;50.920;12.050;2023-03-22T06:38:42;98597.41;;;20.51;45.27
13124;BME280;6627;50.920;12.050;2023-03-22T06:41:10;98549.00;;;19.97;45.93
13124;BME280;6627;50.920;12.050;2023-03-22T06:43:37;98358.25;;;18.60;47.09
13124;BME280;6627;50.920;12.050;2023-03-22T06:46:04;98526.03;;;19.85;46.28
13124;BME280;6627;50.920;12.050;2023-03-22T06:48:32;98349.97;;;18.37;48.00
13124;BME280;6627;50.920;12.050;2023-03-22T06:50:59;98504.50;;;19.45;47.58
13124;BME280;6627;50.920;12.050;2023-03-22T06:53:28;98418.72;;;18.67;48.56
13124;BME280;6627;50.920;12.050;2023-03-22T06:55:55;98563.53;;;19.97;47.01
13124;BME280;6627;50.920;12.050;2023-03-22T06:58:23;98490.31;;;19.20;48.07
13124;BME280;6627;50.920;12.050;2023-03-22T07:00:51;98448.59;;;19.11;46.94
13124;BME280;6627;50.920;12.050;2023-03-22T07:03:19;98491.72;;;19.53;46.38
13124;BME280;6627;50.920;12.050;2023-03-22T07:05:47;98552.94;;;19.99;46.18
13124;BME280;6627;50.920;12.050;2023-03-22T07:08:14;98504.13;;;19.47;47.13
13124;BME280;6627;50.920;12.050;2023-03-22T07:10:48;98510.63;;;19.58;46.86
13124;BME280;6627;50.920;12.050;2023-03-22T07:13:16;98420.50;;;18.98;47.17
13124;BME280;6627;50.920;12.050;2023-03-22T07:15:43;98428.00;;;18.78;47.91
13124;BME280;6627;50.920;12.050;2023-03-22T07:18:11;98453.22;;;19.07;47.45
13124;BME280;6627;50.920;12.050;2023-03-22T07:20:38;98494.63;;;19.40;47.14
13124;BME280;6627;50.920;12.050;2023-03-22T07:23:07;98555.50;;;20.11;46.04
13124;BME280;6627;50.920;12.050;2023-03-22T07:25:35;98481.66;;;19.83;45.51
13124;BME280;6627;50.920;12.050;2023-03-22T07:28:04;98556.84;;;20.21;45.73
13124;BME280;6627;50.920;12.050;2023-03-22T07:30:32;98588.88;;;20.86;44.46
13124;BME280;6627;50.920;12.050;2023-03-22T07:33:01;98600.56;;;20.79;45.04
13124;BME280;6627;50.920;12.050;2023-03-22T07:35:28;98488.16;;;20.25;44.54
13124;BME280;6627;50.920;12.050;2023-03-22T07:37:55;98556.34;;;20.65;45.03
13124;BME280;6627;50.920;12.050;2023-03-22T07:40:24;98565.00;;;20.67;44.70
13124;BME280;6627;50.920;12.050;2023-03-22T07:42:52;98704.91;;;21.75;44.14
13124;BME280;6627;50.920;12.050;2023-03-22T07:45:21;98614.44;;;21.16;44.41
13124;BME280;6627;50.920;12.050;2023-03-22T07:47:49;98634.41;;;21.40;43.97
13124;BME280;6627;50.920;12.050;2023-03-22T07:50:17;98581.47;;;20.94;45.07
13124;BME280;6627;50.920;12.050;2023-03-22T07:52:44;98539.09;;;20.68;45.27
13124;BME280;6627;50.920;12.050;2023-03-22T07:55:13;98556.44;;;20.72;45.29
13124;BME280;6627;50.920;12.050;2023-03-22T07:57:41;98525.31;;;20.41;45.95
13124;BME280;6627;50.920;12.050;2023-03-22T08:00:10;98455.53;;;19.97;45.75
13124;BME280;6627;50.920;12.050;2023-03-22T08:02:39;98507.97;;;20.37;45.95
13124;BME280;6627;50.920;12.050;2023-03-22T08:05:07;98475.06;;;20.18;45.54
13124;BME280;6627;50.920;12.050;2023-03-22T08:07:34;98543.81;;;20.71;45.40
13124;BME280;6627;50.920;12.050;2023-03-22T08:10:04;98537.34;;;20.56;45.47
13124;BME280;6627;50.920;12.050;2023-03-22T08:12:31;98455.75;;;20.11;45.04
13124;BME280;6627;50.920;12.050;2023-03-22T08:14:58;98482.06;;;20.12;45.46
13124;BME280;6627;50.920;12.050;2023-03-22T08:17:26;98427.66;;;19.72;45.72
13124;BME280;6627;50.920;12.050;2023-03-22T08:19:56;98500.88;;;20.36;45.29
13124;BME280;6627;50.920;12.050;2023-03-22T08:22:23;98559.31;;;21.13;43.74
13124;BME280;6627;50.920;12.050;2023-03-22T08:24:54;98485.13;;;20.33;45.04
13124;BME280;6627;50.920;12.050;2023-03-22T08:27:22;98555.03;;;20.85;44.81
13124;BME280;6627;50.920;12.050;2023-03-22T08:29:49;98474.13;;;20.33;44.88
13124;BME280;6627;50.920;12.050;2023-03-22T08:32:19;98543.22;;;20.85;44.51
13124;BME280;6627;50.920;12.050;2023-03-22T08:34:46;98522.50;;;20.64;45.06
13124;BME280;6627;50.920;12.050;2023-03-22T08:37:15;98637.19;;;21.77;43.54
13124;BME280;6627;50.920;12.050;2023-03-22T08:39:45;98603.94;;;22.00;42.58
13124;BME280;6627;50.920;12.050;2023-03-22T08:42:13;98517.09;;;21.35;43.18
13124;BME280;6627;50.920;12.050;2023-03-22T08:44:40;98609.13;;;22.09;42.74
13124;BME280;6627;50.920;12.050;2023-03-22T08:47:07;98609.69;;;22.25;41.91
13124;BME280;6627;50.920;12.050;2023-03-22T08:49:35;98476.59;;;21.39;43.36
13124;BME280;6627;50.920;12.050;2023-03-22T08:52:02;98424.34;;;20.72;44.66
13124;BME280;6627;50.920;12.050;2023-03-22T08:54:33;98453.47;;;21.14;43.82
13124;BME280;6627;50.920;12.050;2023-03-22T08:57:01;98516.31;;;21.79;42.71
13124;BME280;6627;50.920;12.050;2023-03-22T08:59:48;98403.06;;;21.10;42.98
13124;BME280;6627;50.920;12.050;2023-03-22T09:02:17;98652.44;;;23.01;41.23
13124;BME280;6627;50.920;12.050;2023-03-22T09:04:45;98536.16;;;22.51;40.89
13124;BME280;6627;50.920;12.050;2023-03-22T09:07:12;98537.72;;;22.45;41.72
13124;BME280;6627;50.920;12.050;2023-03-22T09:09:41;98475.81;;;21.87;42.62
13124;BME280;6627;50.920;12.050;2023-03-22T09:12:08;98567.25;;;22.44;43.08
13124;BME280;6627;50.920;12.050;2023-03-22T09:14:37;98422.94;;;21.74;42.18
13124;BME280;6627;50.920;12.050;2023-03-22T09:17:04;98515.50;;;22.27;42.50
13124;BME280;6627;50.920;12.050;2023-03-22T09:19:31;98640.03;;;23.50;40.73
13124;BME280;6627;50.920;12.050;2023-03-22T09:21:58;98457.91;;;22.14;41.98
13124;BME280;6627;50.920;12.050;2023-03-22T09:24:26;98529.19;;;22.71;41.30
13124;BME280;6627;50.920;12.050;2023-03-22T09:26:54;98524.03;;;22.70;41.35
13124;BME280;6627;50.920;12.050;2023-03-22T09:29:24;98557.75;;;23.04;40.88
13124;BME280;6627;50.920;12.050;2023-03-22T09:31:51;98518.50;;;22.70;41.61
13124;BME280;6627;50.920;12.050;2023-03-22T09:34:19;98498.00;;;22.74;41.15
13124;BME280;6627;50.920;12.050;2023-03-22T09:36:47;98538.50;;;23.25;40.11
13124;BME280;6627;50.920;12.050;2023-03-22T09:39:15;98678.97;;;24.14;39.59
13124;BME280;6627;50.920;12.050;2023-03-22T09:41:47;98515.19;;;23.26;39.84
13124;BME280;6627;50.920;12.050;2023-03-22T09:44:25;98397.53;;;22.89;39.60
13124;BME280;6627;50.920;12.050;2023-03-22T09:46:56;98544.16;;;23.82;39.06
13124;BME280;6627;50.920;12.050;2023-03-22T09:49:29;98326.50;;;22.94;38.98
13124;BME280;6627;50.920;12.050;2023-03-22T09:52:01;98422.84;;;23.38;38.78
13124;BME280;6627;50.920;12.050;2023-03-22T09:54:33;98448.94;;;23.69;38.24
13124;BME280;6627;50.920;12.050;2023-03-22T09:57:07;98375.06;;;23.30;39.06
13124;BME280;6627;50.920;12.050;2023-03-22T09:59:46;98317.78;;;22.84;39.32
13124;BME280;6627;50.920;12.050;2023-03-22T10:02:45;98459.94;;;24.12;38.15
13124;BME280;6627;50.920;12.050;2023-03-22T10:05:26;98396.00;;;23.67;38.33
13124;BME280;6627;50.920;12.050;2023-03-22T10:08:21;98370.72;;;23.44;39.11
13124;BME280;6627;50.920;12.050;2023-03-22T10:10:52;98385.72;;;23.39;39.04
13124;BME280;6627;50.920;12.050;2023-03-22T10:13:31;98453.66;;;24.01;38.49
13124;BME280;6627;50.920;12.050;2023-03-22T10:16:05;98386.47;;;23.89;38.08
13124;BME280;6627;50.920;12.050;2023-03-22T10:18:37;98390.84;;;23.73;38.91
13124;BME280;6627;50.920;12.050;2023-03-22T10:21:07;98501.34;;;24.69;37.10
13124;BME280;6627;50.920;12.050;2023-03-22T10:23:43;98352.06;;;23.98;37.68
13124;BME280;6627;50.920;12.050;2023-03-22T10:26:19;98399.00;;;24.40;37.08
13124;BME280;6627;50.920;12.050;2023-03-22T10:28:56;98195.88;;;23.11;37.59
13124;BME280;6627;50.920;12.050;2023-03-22T10:31:33;98278.66;;;23.75;37.18
13124;BME280;6627;50.920;12.050;2023-03-22T10:34:05;98342.94;;;24.08;37.17
13124;BME280;6627;50.920;12.050;2023-03-22T10:36:35;98261.75;;;23.37;38.55
13124;BME280;6627;50.920;12.050;2023-03-22T10:39:12;98150.56;;;22.58;39.14
13124;BME280;6627;50.920;12.050;2023-03-22T10:41:42;98148.97;;;22.61;38.72
13124;BME280;6627;50.920;12.050;2023-03-22T10:44:16;98240.06;;;23.25;38.46
13124;BME280;6627;50.920;12.050;2023-03-22T10:46:48;98373.38;;;24.08;37.69
13124;BME280;6627;50.920;12.050;2023-03-22T10:49:24;98214.38;;;23.42;37.46
13124;BME280;6627;50.920;12.050;2023-03-22T10:51:57;98283.72;;;23.95;37.10
13124;BME280;6627;50.920;12.050;2023-03-22T10:54:29;98334.94;;;24.42;35.90
13124;BME280;6627;50.920;12.050;2023-03-22T10:56:57;98221.72;;;23.81;35.57
13124;BME280;6627;50.920;12.050;2023-03-22T10:59:45;98180.25;;;23.81;34.93
13124;BME280;6627;50.920;12.050;2023-03-22T11:02:26;98201.50;;;23.99;35.17
13124;BME280;6627;50.920;12.050;2023-03-22T11:04:57;98237.66;;;24.36;34.70
13124;BME280;6627;50.920;12.050;2023-03-22T11:07:32;98201.81;;;24.15;35.10
13124;BME280;6627;50.920;12.050;2023-03-22T11:10:21;98255.75;;;24.52;34.91
13124;BME280;6627;50.920;12.050;2023-03-22T11:12:52;98002.78;;;23.34;34.71
13124;BME280;6627;50.920;12.050;2023-03-22T11:15:25;98052.84;;;24.10;33.28
13124;BME280;6627;50.920;12.050;2023-03-22T11:17:59;98208.16;;;24.71;34.04
13124;BME280;6627;50.920;12.050;2023-03-22T11:20:27;98348.63;;;25.71;33.54
13124;BME280;6627;50.920;12.050;2023-03-22T11:22:59;98171.22;;;24.88;33.56
13124;BME280;6627;50.920;12.050;2023-03-22T11:25:30;97966.75;;;24.01;33.20
13124;BME280;6627;50.920;12.050;2023-03-22T11:28:08;98098.16;;;24.72;33.05
13124;BME280;6627;50.920;12.050;2023-03-22T11:31:02;97951.78;;;23.95;33.32
13124;BME280;6627;50.920;12.050;2023-03-22T11:33:31;97984.91;;;24.02;33.96
13124;BME280;6627;50.920;12.050;2023-03-22T11:36:01;98004.91;;;24.20;33.38
13124;BME280;6627;50.920;12.050;2023-03-22T11:38:36;98084.22;;;24.41;33.99
13124;BME280;6627;50.920;12.050;2023-03-22T11:41:08;98036.03;;;24.31;33.64
13124;BME280;6627;50.920;12.050;2023-03-22T11:43:41;98077.66;;;24.65;33.00
13124;BME280;6627;50.920;12.050;2023-03-22T11:46:11;98302.63;;;25.77;32.91
13124;BME280;6627;50.920;12.050;2023-03-22T11:48:40;98219.72;;;25.83;31.94
13124;BME280;6627;50.920;12.050;2023-03-22T11:51:10;98041.00;;;24.88;32.67
13124;BME280;6627;50.920;12.050;2023-03-22T11:53:41;98150.94;;;25.67;31.72
13124;BME280;6627;50.920;12.050;2023-03-22T11:56:11;98080.97;;;25.25;32.21
13124;BME280;6627;50.920;12.050;2023-03-22T11:58:56;97874.84;;;24.20;32.51
13124;BME280;6627;50.920;12.050;2023-03-22T12:01:48;98011.81;;;24.80;32.50
13124;BME280;6627;50.920;12.050;2023-03-22T12:04:23;98070.00;;;25.14;32.55
13124;BME280;6627;50.920;12.050;2023-03-22T12:06:56;98062.94;;;25.10;32.55
13124;BME280;6627;50.920;12.050;2023-03-22T12:09:31;98075.22;;;25.39;31.98
13124;BME280;6627;50.920;12.050;2023-03-22T12:12:03;98020.81;;;25.22;32.20
13124;BME280;6627;50.920;12.050;2023-03-22T12:14:39;97945.25;;;24.87;32.23
13124;BME280;6627;50.920;12.050;2023-03-22T12:17:16;98051.34;;;25.49;31.85
13124;BME280;6627;50.920;12.050;2023-03-22T12:19:56;98094.72;;;25.63;31.96
13124;BME280;6627;50.920;12.050;2023-03-22T12:22:30;98119.06;;;25.82;31.77
13124;BME280;6627;50.920;12.050;2023-03-22T12:24:58;98017.22;;;25.52;31.42
13124;BME280;6627;50.920;12.050;2023-03-22T12:27:32;97933.91;;;25.09;31.65
13124;BME280;6627;50.920;12.050;2023-03-22T12:30:06;98007.97;;;25.35;32.03
13124;BME280;6627;50.920;12.050;2023-03-22T12:32:42;97943.34;;;25.15;31.98
13124;BME280;6627;50.920;12.050;2023-03-22T12:35:17;98100.72;;;25.88;31.87
13124;BME280;6627;50.920;12.050;2023-03-22T12:37:50;98003.72;;;25.54;31.55
13124;BME280;6627;50.920;12.050;2023-03-22T12:40:21;97771.38;;;24.14;32.75
13124;BME280;6627;50.920;12.050;2023-03-22T12:43:01;97839.66;;;24.55;32.31
13124;BME280;6627;50.920;12.050;2023-03-22T12:45:38;97787.97;;;24.14;33.18
13124;BME280;6627;50.920;12.050;2023-03-22T12:48:13;98015.72;;;25.48;32.05
13124;BME280;6627;50.920;12.050;2023-03-22T12:50:48;97779.13;;;24.26;32.09
13124;BME280;6627;50.920;12.050;2023-03-22T12:53:19;97910.81;;;24.88;32.27
13124;BME280;6627;50.920;12.050;2023-03-22T12:56:10;97812.00;;;24.21;32.88
13124;BME280;6627;50.920;12.050;2023-03-22T12:58:40;97831.31;;;24.24;32.74
13124;BME280;6627;50.920;12.050;2023-03-22T13:01:20;97916.25;;;24.65;32.57
13124;BME280;6627;50.920;12.050;2023-03-22T13:03:51;97836.81;;;24.28;32.85
13124;BME280;6627;50.920;12.050;2023-03-22T13:06:53;97752.91;;;23.73;33.40
13124;BME280;6627;50.920;12.050;2023-03-22T13:09:37;97895.69;;;24.66;32.41
13124;BME280;6627;50.920;12.050;2023-03-22T13:12:29;97904.72;;;24.70;32.24
13124;BME280;6627;50.920;12.050;2023-03-22T13:15:01;97885.41;;;24.66;32.13
13124;BME280;6627;50.920;12.050;2023-03-22T13:17:43;97969.00;;;24.88;33.02
13124;BME280;6627;50.920;12.050;2023-03-22T13:20:30;97674.88;;;23.24;33.81
13124;BME280;6627;50.920;12.050;2023-03-22T13:23:24;97741.69;;;23.87;32.54
13124;BME280;6627;50.920;12.050;2023-03-22T13:26:03;97977.31;;;25.19;31.81